Pagina principale
METAR-TAF:

METAR-TAF

Aeroporti :

Kaduna, Nigeria

latitudine: 10-36N, longitudine: 007-27E, altezza: 645 m

Osservazione

Il bollettino è stato emesso 2 ore e 39 minuti fa, alle 16:00 UTC
Vento 3 kt da est
Temperature 30°C
Umidità 25%
Pressione 1012 hPa
Visibilità 10 km o più
nessuna nube inferiore a 1500 m e nessun cumulonembo

METAR: DNKA 101600Z 09003KT CAVOK 30/08 Q1012

Ora: 19:39 (18:39 UTC)

Previsione

Il bollettino è stato emesso 13 ore e 39 minuti fa, alle 05:00 UTC
Previsione valida dal 10 alle 06 UTC al 11 alle 12 UTC
Vento 5 kt da nord-est
Visibilità 10 km o più
nessuna nube inferiore a 1500 m e nessun cumulonembo
Evoluzione graduale
dal 10 alle 09 UTC al 10 alle 11 UTC
Vento 12 kt da est/sud-est

TAF: DNKA 100500Z 1006/1112 04005KT CAVOK BECMG 1009/1011 12012KT

Osservazioni e previsioni meteorologiche di più di 4000 aeroporti (messaggi METAR e TAF).

Le stazioni disponibili sono rappresentate dai dischi gialli e rossi sulla carta.

Puntare il mouse per vedere il nome della stazione.

Clicca sopra per visualizzare le osservazioni e previsioni meteorologiche.

Per cambiare la mappa : fare clic sui pulsanti verdi con una croce nera per ingrandire, il pulsante verde con un trattino per diminuire, o sulla freccia verde per le mappe adiacenti.


METAR-TAF: